Wetterdaten: Woche 13.04.09 - 19.04.09 (KW16)
Datum Zeit Temp. A. Feuchte A. Luftdruck Regen Wind Richtung Taupunkt Windchill Windben
13.04.2009 00:00 11,0 C 72 % 1008,8 hPa 0,0 l/m 0,3 km/h N 6,0 C 11,0 C 2,4 km/h
13.04.2009 01:00 9,8 C 75 % 1008,8 hPa 0,0 l/m 0,1 km/h N 5,5 C 9,8 C 1,2 km/h
13.04.2009 02:00 8,5 C 80 % 1008,5 hPa 0,0 l/m 0,1 km/h N 5,3 C 8,5 C 2,4 km/h
13.04.2009 03:00 7,9 C 82 % 1008,7 hPa 0,0 l/m 0,0 km/h N 5,0 C 7,9 C 0,8 km/h
13.04.2009 04:00 7,6 C 84 % 1008,7 hPa 0,0 l/m 0,3 km/h N 4,9 C 7,6 C 2,8 km/h
13.04.2009 05:00 6,3 C 87 % 1008,8 hPa 0,0 l/m 0,0 km/h N 4,2 C 6,3 C 0,4 km/h
13.04.2009 06:00 6,2 C 89 % 1009,0 hPa 0,0 l/m 0,0 km/h N 4,4 C 6,2 C 0,4 km/h
13.04.2009 07:00 8,1 C 85 % 1009,3 hPa 0,0 l/m 0,2 km/h N 5,7 C 8,1 C 2,0 km/h
13.04.2009 08:00 10,9 C 75 % 1009,6 hPa 0,0 l/m 0,1 km/h O 6,7 C 10,9 C 2,0 km/h
13.04.2009 09:00 12,4 C 69 % 1009,6 hPa 0,0 l/m 2,0 km/h O 6,9 C 12,4 C 6,4 km/h
13.04.2009 10:00 13,6 C 67 % 1009,8 hPa 0,0 l/m 3,1 km/h N-NO 7,5 C 13,6 C 8,4 km/h
13.04.2009 11:00 15,2 C 64 % 1009,8 hPa 0,0 l/m 3,8 km/h NO 8,5 C 15,2 C 9,3 km/h
13.04.2009 12:00 16,6 C 60 % 1009,5 hPa 0,0 l/m 3,7 km/h O-NO 8,6 C 16,6 C 9,7 km/h
13.04.2009 13:00 17,7 C 54 % 1009,0 hPa 0,0 l/m 4,4 km/h O 8,3 C 17,7 C 10,1 km/h
13.04.2009 14:00 18,6 C 51 % 1008,5 hPa 0,0 l/m 4,8 km/h O 8,4 C 18,6 C 12,1 km/h
13.04.2009 15:00 19,4 C 49 % 1008,0 hPa 0,0 l/m 3,6 km/h O-NO 8,4 C 19,4 C 8,4 km/h
13.04.2009 16:00 19,7 C 47 % 1007,5 hPa 0,0 l/m 3,3 km/h O 7,9 C 19,7 C 8,4 km/h
13.04.2009 17:00 19,7 C 46 % 1007,2 hPa 0,0 l/m 3,3 km/h O 7,6 C 19,7 C 8,0 km/h
13.04.2009 18:00 19,2 C 44 % 1007,0 hPa 0,0 l/m 1,4 km/h O-SO 6,4 C 19,2 C 6,4 km/h
13.04.2009 19:00 16,7 C 52 % 1007,1 hPa 0,0 l/m 0,1 km/h N 6,8 C 16,7 C 0,8 km/h
13.04.2009 20:00 13,7 C 63 % 1007,5 hPa 0,0 l/m 0,0 km/h N 6,7 C 13,7 C 0,4 km/h
13.04.2009 21:00 11,9 C 69 % 1007,9 hPa 0,0 l/m 0,0 km/h N 6,3 C 11,9 C 1,2 km/h
13.04.2009 22:00 11,3 C 71 % 1007,7 hPa 0,0 l/m 0,1 km/h N 6,1 C 11,3 C 2,8 km/h
13.04.2009 23:00 11,0 C 72 % 1007,6 hPa 0,0 l/m 0,3 km/h N 6,0 C 11,0 C 3,2 km/h
14.04.2009 00:00 10,6 C 74 % 1007,6 hPa 0,0 l/m 0,7 km/h W-SW 6,1 C 10,6 C 5,2 km/h
14.04.2009 01:00 9,3 C 78 % 1007,6 hPa 0,0 l/m 0,1 km/h N 5,7 C 9,3 C 1,6 km/h
14.04.2009 02:00 9,5 C 77 % 1007,5 hPa 0,0 l/m 0,3 km/h N 5,6 C 9,5 C 4,0 km/h
14.04.2009 03:00 8,3 C 81 % 1007,5 hPa 0,0 l/m 0,1 km/h N 5,2 C 8,3 C 2,0 km/h
14.04.2009 04:00 7,3 C 85 % 1007,7 hPa 0,0 l/m 0,0 km/h N 5,0 C 7,3 C 1,6 km/h
14.04.2009 05:00 6,6 C 87 % 1007,9 hPa 0,0 l/m 0,0 km/h N 4,7 C 6,6 C 0,4 km/h
14.04.2009 06:00 7,6 C 86 % 1008,0 hPa 0,0 l/m 0,1 km/h N 5,4 C 7,6 C 2,0 km/h
14.04.2009 07:00 10,0 C 79 % 1008,1 hPa 0,0 l/m 0,4 km/h NW 6,6 C 10,0 C 2,8 km/h
14.04.2009 08:00 12,2 C 71 % 1008,5 hPa 0,0 l/m 4,1 km/h NW 7,0 C 12,2 C 9,3 km/h
14.04.2009 09:00 13,2 C 67 % 1008,5 hPa 0,0 l/m 4,5 km/h N-NW 7,3 C 13,2 C 9,7 km/h
14.04.2009 10:00 14,9 C 63 % 1008,5 hPa 0,0 l/m 5,5 km/h NO 7,8 C 14,9 C 11,7 km/h
14.04.2009 11:00 16,8 C 54 % 1008,3 hPa 0,0 l/m 5,6 km/h N-NO 7,5 C 16,8 C 14,5 km/h
14.04.2009 12:00 18,6 C 48 % 1008,1 hPa 0,0 l/m 5,2 km/h NO 7,4 C 18,6 C 13,7 km/h
14.04.2009 13:00 19,4 C 41 % 1007,8 hPa 0,0 l/m 6,0 km/h N-NO 5,6 C 19,3 C 14,9 km/h
14.04.2009 14:00 20,2 C 37 % 1007,5 hPa 0,0 l/m 4,5 km/h NO 5,0 C 20,2 C 12,9 km/h
14.04.2009 15:00 21,0 C 33 % 1007,1 hPa 0,0 l/m 4,0 km/h N-NO 4,2 C 21,0 C 14,9 km/h
14.04.2009 16:00 20,9 C 30 % 1007,3 hPa 0,0 l/m 4,5 km/h N-NW 2,8 C 20,9 C 13,3 km/h
14.04.2009 17:00 20,3 C 28 % 1007,4 hPa 0,0 l/m 3,9 km/h N-NO 1,2 C 20,3 C 10,5 km/h
14.04.2009 18:00 19,2 C 32 % 1007,6 hPa 0,0 l/m 4,2 km/h NO 2,2 C 19,2 C 9,7 km/h
14.04.2009 19:00 17,1 C 41 % 1007,9 hPa 0,0 l/m 0,9 km/h N 3,5 C 17,1 C 4,0 km/h
14.04.2009 20:00 13,6 C 51 % 1008,7 hPa 0,0 l/m 0,0 km/h N 3,7 C 13,6 C 0,8 km/h
14.04.2009 21:00 11,8 C 57 % 1009,3 hPa 0,0 l/m 0,1 km/h N 3,6 C 11,8 C 1,2 km/h
14.04.2009 22:00 10,9 C 60 % 1009,6 hPa 0,0 l/m 0,2 km/h N 3,4 C 10,9 C 3,2 km/h
14.04.2009 23:00 10,7 C 61 % 1009,9 hPa 0,0 l/m 0,2 km/h N 3,4 C 10,7 C 4,0 km/h
15.04.2009 00:00 10,6 C 62 % 1010,1 hPa 0,0 l/m 0,7 km/h SW 3,5 C 10,6 C 5,6 km/h
15.04.2009 01:00 10,1 C 63 % 1010,3 hPa 0,0 l/m 2,7 km/h SW 3,4 C 10,1 C 9,3 km/h
15.04.2009 02:00 9,5 C 66 % 1010,2 hPa 0,0 l/m 1,7 km/h W-SW 3,5 C 9,5 C 7,6 km/h
15.04.2009 03:00 8,8 C 70 % 1010,4 hPa 0,0 l/m 3,6 km/h SW 3,5 C 8,8 C 9,3 km/h
15.04.2009 04:00 7,1 C 78 % 1010,8 hPa 0,0 l/m 0,3 km/h N 3,5 C 7,1 C 2,4 km/h
15.04.2009 05:00 7,1 C 79 % 1010,9 hPa 0,0 l/m 0,6 km/h W-SW 3,7 C 7,1 C 5,2 km/h
15.04.2009 06:00 7,3 C 79 % 1011,3 hPa 0,0 l/m 1,2 km/h N-NW 3,9 C 7,3 C 5,6 km/h
15.04.2009 07:00 8,7 C 77 % 1011,9 hPa 0,0 l/m 0,6 km/h W 4,8 C 8,7 C 3,6 km/h
15.04.2009 08:00 11,4 C 72 % 1012,2 hPa 0,0 l/m 0,0 km/h N 6,6 C 11,4 C 0,8 km/h
15.04.2009 09:00 14,5 C 62 % 1012,4 hPa 0,0 l/m 1,2 km/h O-NO 7,3 C 14,5 C 4,8 km/h
15.04.2009 10:00 15,9 C 59 % 1012,3 hPa 0,0 l/m 2,0 km/h NO 8,0 C 15,9 C 6,0 km/h
15.04.2009 11:00 17,4 C 56 % 1012,3 hPa 0,0 l/m 2,7 km/h O-NO 8,3 C 17,4 C 7,2 km/h
15.04.2009 12:00 19,0 C 50 % 1012,0 hPa 0,0 l/m 2,7 km/h O 8,2 C 19,0 C 8,1 km/h
15.04.2009 13:00 20,2 C 46 % 1011,5 hPa 0,0 l/m 2,5 km/h O-NO 8,3 C 20,2 C 8,0 km/h
15.04.2009 14:00 21,0 C 42 % 1011,3 hPa 0,0 l/m 4,0 km/h O 7,7 C 21,0 C 9,7 km/h
15.04.2009 15:00 21,9 C 37 % 1010,9 hPa 0,0 l/m 3,6 km/h O 6,5 C 21,9 C 9,7 km/h
15.04.2009 16:00 21,9 C 35 % 1010,6 hPa 0,0 l/m 4,3 km/h O-NO 5,7 C 21,9 C 10,9 km/h
15.04.2009 17:00 21,5 C 35 % 1010,5 hPa 0,0 l/m 4,3 km/h O-NO 5,3 C 21,5 C 9,3 km/h
15.04.2009 18:00 20,5 C 39 % 1010,5 hPa 0,0 l/m 4,7 km/h O 5,9 C 20,5 C 9,6 km/h
15.04.2009 19:00 18,2 C 47 % 1010,7 hPa 0,0 l/m 0,9 km/h N 6,5 C 18,2 C 3,6 km/h
15.04.2009 20:00 14,3 C 61 % 1011,2 hPa 0,0 l/m 0,0 km/h N 6,7 C 14,3 C 0,4 km/h
15.04.2009 21:00 12,6 C 65 % 1011,6 hPa 0,0 l/m 0,1 km/h N 6,3 C 12,6 C 2,0 km/h
15.04.2009 22:00 10,3 C 74 % 1011,7 hPa 0,0 l/m 0,0 km/h N 5,8 C 10,3 C 0,8 km/h
15.04.2009 23:00 9,6 C 77 % 1011,7 hPa 0,0 l/m 0,0 km/h N 5,8 C 9,6 C 0,4 km/h
16.04.2009 00:00 8,5 C 80 % 1011,7 hPa 0,0 l/m 0,0 km/h N 5,3 C 8,5 C 0,0 km/h
16.04.2009 01:00 7,7 C 83 % 1011,6 hPa 0,0 l/m 0,0 km/h N 4,9 C 7,7 C 0,0 km/h
16.04.2009 02:00 7,2 C 84 % 1011,4 hPa 0,0 l/m 0,0 km/h N 4,6 C 7,2 C 0,0 km/h
16.04.2009 03:00 6,5 C 86 % 1011,3 hPa 0,0 l/m 0,0 km/h N 4,3 C 6,5 C 0,8 km/h
16.04.2009 04:00 6,3 C 87 % 1011,3 hPa 0,0 l/m 0,0 km/h N 4,2 C 6,3 C 0,0 km/h
16.04.2009 05:00 5,8 C 88 % 1011,2 hPa 0,0 l/m 0,0 km/h N 4,0 C 5,8 C 0,0 km/h
16.04.2009 06:00 5,7 C 90 % 1011,5 hPa 0,0 l/m 0,0 km/h N 4,1 C 5,7 C 0,0 km/h
16.04.2009 07:00 8,2 C 85 % 1011,8 hPa 0,0 l/m 0,0 km/h N 5,8 C 8,2 C 0,0 km/h
16.04.2009 08:00 11,5 C 71 % 1011,8 hPa 0,0 l/m 0,9 km/h O 6,5 C 11,5 C 4,4 km/h
16.04.2009 09:00 13,4 C 66 % 1011,6 hPa 0,0 l/m 1,3 km/h O 7,1 C 13,4 C 5,2 km/h
16.04.2009 10:00 15,1 C 60 % 1011,5 hPa 0,0 l/m 2,4 km/h O-NO 7,5 C 15,1 C 8,4 km/h
16.04.2009 11:00 17,6 C 54 % 1011,1 hPa 0,0 l/m 3,4 km/h NO 8,1 C 17,6 C 10,5 km/h
16.04.2009 12:00 19,0 C 53 % 1010,4 hPa 0,0 l/m 4,5 km/h O-SO 9,0 C 18,9 C 14,9 km/h
16.04.2009 13:00 20,3 C 48 % 1009,3 hPa 0,0 l/m 5,2 km/h O-NO 8,8 C 20,3 C 16,9 km/h
16.04.2009 14:00 21,5 C 44 % 1008,3 hPa 0,0 l/m 7,3 km/h O 8,7 C 21,1 C 18,1 km/h
16.04.2009 15:00 23,3 C 37 % 1007,2 hPa 0,0 l/m 4,6 km/h O-NO 7,7 C 23,2 C 16,1 km/h
16.04.2009 16:00 23,8 C 34 % 1006,2 hPa 0,0 l/m 3,4 km/h SO 6,9 C 23,8 C 13,7 km/h
16.04.2009 17:00 23,3 C 33 % 1005,5 hPa 0,0 l/m 3,3 km/h S-SO 6,0 C 23,3 C 13,3 km/h
16.04.2009 18:00 22,3 C 35 % 1004,9 hPa 0,0 l/m 3,3 km/h O 6,0 C 22,3 C 12,9 km/h
16.04.2009 19:00 20,7 C 38 % 1004,8 hPa 0,0 l/m 3,8 km/h SO 5,7 C 20,7 C 17,7 km/h
16.04.2009 20:00 19,1 C 40 % 1004,9 hPa 0,0 l/m 2,4 km/h S-SO 5,0 C 19,1 C 12,9 km/h
16.04.2009 21:00 17,3 C 45 % 1004,5 hPa 0,0 l/m 1,3 km/h S 5,1 C 17,3 C 8,0 km/h
16.04.2009 22:00 16,5 C 47 % 1003,8 hPa 0,0 l/m 3,0 km/h S 5,3 C 16,5 C 14,1 km/h
16.04.2009 23:00 16,3 C 46 % 1003,6 hPa 0,0 l/m 5,4 km/h S 4,5 C 16,2 C 17,7 km/h
17.04.2009 00:00 15,6 C 47 % 1003,4 hPa 0,0 l/m 5,3 km/h S-SO 4,2 C 15,6 C 17,7 km/h
17.04.2009 01:00 15,3 C 47 % 1003,3 hPa 0,0 l/m 5,2 km/h S-SO 4,0 C 15,3 C 16,9 km/h
17.04.2009 02:00 14,5 C 50 % 1003,2 hPa 0,0 l/m 2,8 km/h S-SO 4,1 C 14,5 C 8,1 km/h
17.04.2009 03:00 12,1 C 59 % 1003,8 hPa 0,0 l/m 0,4 km/h N 4,2 C 12,1 C 3,2 km/h
17.04.2009 04:00 12,4 C 58 % 1004,0 hPa 0,0 l/m 0,3 km/h N 4,4 C 12,4 C 3,6 km/h
17.04.2009 05:00 11,9 C 61 % 1004,2 hPa 0,0 l/m 1,4 km/h S 4,4 C 11,9 C 6,8 km/h
17.04.2009 06:00 13,9 C 53 % 1004,2 hPa 0,0 l/m 2,2 km/h SO 4,4 C 13,9 C 11,7 km/h
17.04.2009 07:00 13,4 C 57 % 1004,8 hPa 0,0 l/m 2,5 km/h N-NW 5,0 C 13,4 C 8,9 km/h
17.04.2009 08:00 13,1 C 65 % 1004,9 hPa 0,0 l/m 0,3 km/h N 6,6 C 13,1 C 2,4 km/h
17.04.2009 09:00 13,4 C 64 % 1005,6 hPa 0,0 l/m 1,0 km/h SW 6,8 C 13,4 C 4,4 km/h
17.04.2009 10:00 13,3 C 62 % 1006,0 hPa 0,0 l/m 3,3 km/h NW 6,1 C 13,3 C 9,6 km/h
17.04.2009 11:00 14,6 C 56 % 1006,3 hPa 0,0 l/m 5,6 km/h W 5,8 C 14,5 C 16,9 km/h
17.04.2009 12:00 13,5 C 55 % 1006,5 hPa 0,0 l/m 6,2 km/h W 4,7 C 13,3 C 20,5 km/h
17.04.2009 13:00 12,4 C 60 % 1006,9 hPa 0,0 l/m 6,7 km/h W-SW 4,8 C 11,9 C 23,3 km/h
17.04.2009 14:00 13,7 C 56 % 1007,2 hPa 0,0 l/m 3,4 km/h S 4,9 C 13,7 C 14,9 km/h
17.04.2009 15:00 15,3 C 51 % 1007,0 hPa 0,0 l/m 6,8 km/h W-SW 5,1 C 14,8 C 21,3 km/h
17.04.2009 16:00 16,0 C 48 % 1007,0 hPa 0,0 l/m 6,3 km/h NW 4,9 C 15,9 C 21,3 km/h
17.04.2009 17:00 14,8 C 50 % 1007,5 hPa 0,0 l/m 7,4 km/h W 4,5 C 14,1 C 19,3 km/h
17.04.2009 18:00 14,7 C 52 % 1007,7 hPa 0,0 l/m 4,7 km/h NW 4,9 C 14,7 C 18,9 km/h
17.04.2009 19:00 13,9 C 55 % 1008,3 hPa 0,0 l/m 5,4 km/h W-SW 5,0 C 13,7 C 18,9 km/h
17.04.2009 20:00 13,1 C 55 % 1008,5 hPa 0,0 l/m 4,7 km/h SW 4,2 C 13,1 C 14,5 km/h
17.04.2009 21:00 11,5 C 61 % 1009,1 hPa 0,0 l/m 1,0 km/h W-NW 4,2 C 11,5 C 6,0 km/h
17.04.2009 22:00 10,1 C 67 % 1009,7 hPa 0,0 l/m 0,1 km/h N 4,2 C 10,1 C 2,4 km/h
17.04.2009 23:00 9,4 C 70 % 1010,0 hPa 0,0 l/m 0,5 km/h W-SW 4,2 C 9,4 C 3,2 km/h
18.04.2009 00:00 8,9 C 73 % 1010,3 hPa 0,0 l/m 0,5 km/h SW 4,2 C 8,9 C 2,8 km/h
18.04.2009 01:00 8,0 C 77 % 1010,4 hPa 0,0 l/m 0,1 km/h N 4,2 C 8,0 C 1,6 km/h
18.04.2009 02:00 8,4 C 77 % 1010,4 hPa 0,0 l/m 0,6 km/h SW 4,6 C 8,4 C 4,4 km/h
18.04.2009 03:00 7,4 C 79 % 1010,4 hPa 0,0 l/m 0,2 km/h N 4,1 C 7,4 C 2,8 km/h
18.04.2009 04:00 6,3 C 85 % 1010,6 hPa 0,0 l/m 0,2 km/h N 4,0 C 6,3 C 2,8 km/h
18.04.2009 05:00 6,4 C 86 % 1010,5 hPa 0,0 l/m 0,3 km/h N 4,1 C 6,4 C 3,2 km/h
18.04.2009 06:00 6,0 C 87 % 1010,9 hPa 0,0 l/m 0,1 km/h N 3,9 C 6,0 C 1,6 km/h
18.04.2009 07:00 8,0 C 82 % 1011,3 hPa 0,0 l/m 0,1 km/h N 5,2 C 8,0 C 1,6 km/h
18.04.2009 08:00 10,2 C 76 % 1011,7 hPa 0,0 l/m 0,8 km/h O-NO 6,2 C 10,2 C 3,6 km/h
18.04.2009 09:00 12,6 C 67 % 1012,2 hPa 0,0 l/m 1,0 km/h O-NO 6,7 C 12,6 C 4,4 km/h
18.04.2009 10:00 15,0 C 58 % 1012,4 hPa 0,0 l/m 1,8 km/h O 6,7 C 15,0 C 6,8 km/h
18.04.2009 11:00 16,8 C 49 % 1012,7 hPa 0,0 l/m 2,4 km/h S 5,9 C 16,8 C 9,3 km/h
18.04.2009 12:00 17,4 C 47 % 1013,0 hPa 0,0 l/m 3,2 km/h O-NO 5,7 C 17,4 C 11,7 km/h
18.04.2009 13:00 17,0 C 49 % 1013,0 hPa 0,0 l/m 2,4 km/h O 6,1 C 17,0 C 8,0 km/h
18.04.2009 14:00 15,3 C 57 % 1013,2 hPa 0,3 l/m 2,2 km/h O-NO 6,8 C 15,3 C 6,8 km/h
18.04.2009 15:00 15,4 C 56 % 1013,6 hPa 0,0 l/m 1,3 km/h O 6,6 C 15,4 C 7,6 km/h
18.04.2009 16:00 15,6 C 58 % 1014,2 hPa 0,0 l/m 5,4 km/h S-SO 7,2 C 15,4 C 20,5 km/h
18.04.2009 17:00 14,6 C 62 % 1014,1 hPa 0,0 l/m 4,8 km/h S-SO 7,3 C 14,3 C 15,3 km/h
18.04.2009 18:00 15,6 C 56 % 1013,9 hPa 0,0 l/m 1,6 km/h S-SW 6,8 C 15,6 C 6,8 km/h
18.04.2009 19:00 13,8 C 62 % 1014,4 hPa 0,0 l/m 0,3 km/h N 6,6 C 13,8 C 3,2 km/h
18.04.2009 20:00 10,1 C 79 % 1015,4 hPa 0,0 l/m 0,0 km/h N 6,6 C 10,1 C 0,8 km/h
18.04.2009 21:00 9,2 C 84 % 1016,3 hPa 0,0 l/m 0,1 km/h N 6,6 C 9,2 C 1,6 km/h
18.04.2009 22:00 8,6 C 83 % 1016,7 hPa 0,0 l/m 0,1 km/h N 5,9 C 8,6 C 2,0 km/h
18.04.2009 23:00 8,0 C 84 % 1017,2 hPa 0,0 l/m 0,2 km/h N 5,4 C 8,0 C 2,8 km/h
19.04.2009 00:00 7,6 C 85 % 1017,4 hPa 0,0 l/m 0,2 km/h N 5,3 C 7,6 C 4,0 km/h
19.04.2009 01:00 7,3 C 85 % 1017,9 hPa 0,0 l/m 0,2 km/h N 5,0 C 7,3 C 2,8 km/h
19.04.2009 02:00 6,6 C 86 % 1018,2 hPa 0,0 l/m 0,2 km/h N 4,4 C 6,6 C 2,4 km/h
19.04.2009 03:00 6,9 C 86 % 1018,3 hPa 0,0 l/m 0,6 km/h SW 4,6 C 6,9 C 4,8 km/h
19.04.2009 04:00 6,7 C 85 % 1018,7 hPa 0,0 l/m 0,4 km/h N 4,4 C 6,7 C 4,0 km/h
19.04.2009 05:00 5,8 C 87 % 1018,9 hPa 0,0 l/m 0,2 km/h N 3,8 C 5,8 C 3,6 km/h
19.04.2009 06:00 6,0 C 87 % 1019,2 hPa 0,0 l/m 0,3 km/h N 4,1 C 6,0 C 3,2 km/h
19.04.2009 07:00 8,3 C 82 % 1019,8 hPa 0,0 l/m 0,1 km/h N 5,4 C 8,3 C 2,0 km/h
19.04.2009 08:00 11,6 C 72 % 1020,2 hPa 0,0 l/m 0,4 km/h N 6,7 C 11,6 C 4,0 km/h
19.04.2009 09:00 13,0 C 66 % 1020,6 hPa 0,0 l/m 0,4 km/h N 6,8 C 13,0 C 3,6 km/h
19.04.2009 10:00 15,0 C 61 % 1020,7 hPa 0,0 l/m 1,3 km/h O 7,5 C 15,0 C 5,6 km/h
19.04.2009 11:00 16,7 C 57 % 1020,8 hPa 0,0 l/m 1,8 km/h O 8,1 C 16,7 C 6,0 km/h
19.04.2009 12:00 17,9 C 50 % 1020,7 hPa 0,0 l/m 3,0 km/h O 7,3 C 17,9 C 8,9 km/h
19.04.2009 13:00 19,1 C 47 % 1020,4 hPa 0,0 l/m 4,2 km/h O 7,4 C 19,1 C 9,7 km/h
19.04.2009 14:00 19,4 C 44 % 1020,2 hPa 0,0 l/m 3,9 km/h O-NO 6,8 C 19,4 C 10,9 km/h
19.04.2009 15:00 20,4 C 42 % 1019,8 hPa 0,0 l/m 3,0 km/h O-NO 6,8 C 20,4 C 9,6 km/h
19.04.2009 16:00 20,1 C 40 % 1019,5 hPa 0,0 l/m 2,5 km/h O 6,0 C 20,1 C 7,6 km/h
19.04.2009 17:00 19,9 C 40 % 1019,6 hPa 0,0 l/m 2,8 km/h O 5,7 C 19,9 C 7,6 km/h
19.04.2009 18:00 19,6 C 42 % 1019,8 hPa 0,0 l/m 2,0 km/h O 6,1 C 19,6 C 9,6 km/h
19.04.2009 19:00 17,1 C 56 % 1020,1 hPa 0,0 l/m 4,4 km/h S 8,2 C 17,0 C 12,9 km/h
19.04.2009 20:00 16,3 C 60 % 1020,2 hPa 0,0 l/m 0,3 km/h N 8,4 C 16,3 C 2,8 km/h
19.04.2009 21:00 15,1 C 65 % 1020,7 hPa 0,0 l/m 0,0 km/h N 8,6 C 15,1 C 0,8 km/h
19.04.2009 22:00 15,1 C 64 % 1020,9 hPa 0,0 l/m 0,1 km/h N 8,2 C 15,1 C 1,6 km/h
19.04.2009 23:00 14,5 C 64 % 1021,0 hPa 0,0 l/m 0,3 km/h N 7,7 C 14,5 C 2,4 km/h
Min-Datum _ 19.04.09 14.04.09 17.04.09 - 13.04.09 - 14.04.09 19.04.09 13.04.09
_ Min-Zeit 05:30 17:15 01:00 - 00:00 - 17:45 05:30 01:15
Minimum _ 5,2 C 26 % 1003,2 hPa - 0,0 km/h - 0,0 C 5,3 C 0,0 km/h
Max-Datum _ 16.04.09 16.04.09 19.04.09 18.04.09 17.04.09 - 16.04.09 16.04.09 17.04.09
_ Max-Zeit 16:30 06:30 23:30 14:15 17:00 - 12:45 16:15 13:00
Maximum _ 24,3 C 90 % 1021,1 hPa 0,3 l/m 11,0 km/h
W
- 9,8 C 24,2 C 27,4 km/h
W-SW
Durchschnitt _ 13,5 C 62 % 1010,8 hPa #0,3 l/m 2,0 km/h O 5,8 C 13,4 C 7,0 km/h